Timeline UpdatesTrip UpdatesNews PostsPvt PostsTravel TipsAdmin PostsConv PostsFollowed PostsChat RequestsBlog PostsPNR Posts

Disclaimer
Search
 
 
Thu Apr 24, 2014 01:32:38 ISTHomeTrainsΣChainsAtlasPNRForumGalleryNewsFAQTripsMembersLoginFeedback
No Recent News for this Train
Other Trains in the News **new
Latest...
.
Fri Jun 22, 2012 (10:25PM)
⇐ Return Journey: Train# 54811

54812/Jodhpur-Bhopal Passenger

Feb 22 2014 (11:36PM)
Change Departure Station:
Change Arrival Station:
Post a Train Travel TipPost a Train Travel Tip **new
Post a Comment/Question/Picture/VideoPost a Comment/Question/Picture/Video
Pantry/Catering
✕ NO Pantry Car
✕ NO Catering
Loco/Rake Reversals
SWM/Sawai Madhopur Junction (4); KOTA/Kota Junction (5);
RSA - Rake Sharing
RSA with 54821/22 bhildi jodhpur passenger
Rake/Coach Composition
LOCO, SLR, GS, GS, GS, S-1, S-2, S-3, GS, GS, GS, GS, GS, GSLRD, STORE DELIVERY VAN
Loco
WDM 2A upto Bina, Bina to Bhopal: WAM 4
News    PNR    Forum    Time-Table    Availability    Fare Chart    Map    Arr/Dep History    Trips    Gallery    ΣChains    X/O    Timeline    
Travel Time: 5h 33m    27 halts    Distance: 248 km    Avg Speed: 44 km/hr
Type: Passenger
Zone: NWR/North Western
Departs @ 08:05 (Avg 2m late)
Platform# ???
SMTWTFS
Jodhpur Junction/JU 
Arrives @ 13:38 (Avg 1h 5m late)
Platform# ???
SMTWTFS
Sambhar Lake/SBR 

27 halts. 28 intermediate Stations between Jodhpur Junction and Sambhar Lake

Show ALL intermediate Stations  Show Old Time-Table

#CodeStation NameX/OArrivesAvgDepartsAvgHaltPFDay#KmSpeedElevZoneAddress
1JU»Jodhpur Junction (5)»  -08:05+2--10.028241mNWRJodhpur, Rajasthan
2RKBRaikabagh Palace Junction (2)X  08:10+1008:12+192m--12.360237mNWRJodhpur, Rajasthan
3BNOBanar  08:24+2208:26+232m--114.255213mNWRBanar, Rajasthan
4JWLJajiwalX  08:35+2308:37+232m--122.567228mNWRJodhpur, Rajasthan
5AASAsranada  08:45+2408:47+252m--131.361251mNWRState Highway 58, Rajasthan
6KSWKheri Salwa  08:56+2508:58+282m--140.464269mNWRJajiwal, Rajasthan
7PPRPipar Road Junction  09:04+2909:06+312m--146.957272mNWRState Highway 58, Rajasthan
8SWFSathin Road  09:15+3109:17+352m--155.562284mNWRUMED, Rajasthan
9UMEDUmedX  09:27+3509:29+372m--165.856308mNWRJodhpur, Rajasthan
10KXGKharia Khangarh  09:40+3709:42+382m--176.054310mNWRKharia Khangar, Rajasthan
11GOTNGotan  09:50+3809:52+402m--183.159323mNWRGotan, Rajasthan
12JOMJogi Magra (1)X  10:02+4010:04+452m1192.924335mNWRNagaur, Rajasthan
13MTDMerta Road Junction (4)  10:30+3010:35+335m--1103.3116322mNWRPhalodi, Rajasthan
14KQWKheduli  10:43+3610:45+352m--1118.717307mNWRRen, Rajasthan
15RENRen  10:52+3610:54+372m--1120.763307mNWRNagaur, Rajasthan
16JACJalsu  11:07+3711:09+372m--1134.448321mNWRNagaur, Rajasthan
17JACNJalsu Nanak  11:16+3411:18+342m--1140.049331mNWRREN, Rajasthan
18DNADegana Junction (4)  11:27+3411:30+363m--1147.382339mNWRDegana, Rajasthan
19GCHGachhipura  11:41+3811:43+402m--1162.468362mNWRNagaur, Rajasthan
20BSRLBesroli  11:53+4011:55+452m--1173.771378mNWRNagaur, Rajasthan
21BOWBorawar  12:05+4512:07+482m--1185.639403mNWRBesrol, Rajasthan
22MKNMakrana Junction (2)  12:15+4812:17+502m--1190.857423mNWRMakrana, Rajasthan
23KMNCKuchaman CityX  12:32+4912:34+512m--1204.941404mNWRPalari, Rajasthan
24THMRThathana Mithri  12:41+5012:43+502m--1209.751388mNWRNawa City, Rajasthan
25NYKNaya KharadiaX  12:48+5012:50+552m--1214.036375mNWRMakrana, Rajasthan
26NACNawa City  13:01+5213:03+542m--1220.650390mNWRNawa, Rajasthan
27GVMRGovindi Marwar  13:14+5313:16+572m--1229.864373mNWRSambhar Lake, Rajasthan
28GAGudha (1)X  13:26+5713:28+1:052m11240.546365mNWRPhulera, Rajasthan
29SBR•Sambhar Lake•O  13:38+1:0513:40+1:072m--1248.25368mNWRSambhar, Rajasthan
30FLPhulera Junction (5)X  15:00+815:05+175m--1255.374386mNWRPhulera, Rajasthan
31HDAHirnodaX  15:12+2215:13+251m--1264.040400mNWRJaipur, Rajasthan
32DHNDDhinda  15:19+2415:20+241m--1268.048386mNWRMDR 59, Rajasthan
33JOBAsalpur JobnerX  15:27+2415:28+251m--1273.756379mNWRJaipur, Rajasthan
34BOBSBobas  15:36+2515:37+311m--1281.152396mNWRJaipur, Rajasthan
35SHNXSheo Singh PuraX  15:45+3015:46+301m--1288.038411mNWRJaipur, Rajasthan
36DNKDhanakya  15:52+3015:53+331m--1291.846418mNWRJaipur, Rajasthan
37BDYKBindayaka  15:59+3416:00+341m--1296.452411mNWRJaipur, Rajasthan
38KKUKanakpuraXO  16:06+3416:07+381m--1301.514429mNWRJaipur, Rajasthan
39JPJaipur Junction (7)XO  16:45+1517:45+960m41310.449434mNWRJaipur, Rajasthan
40DPADurgapura (3)  17:54+1317:55+151m11317.833400mNWRJaipur, Rajasthan
41SNGNSanganer  18:04+1418:05+171m11322.766383mNWRJaipur, Rajasthan
42SASShivdaspura Padampura  18:20+1718:21+181m11339.375335mNWRJaipur, Rajasthan
43CKSChaksuX  18:32+2218:33+221m--1353.148319mNWRDist. Jaipur, Rajasthan
44CHNNChannani  18:46+2018:47+201m--1363.571326mNWRChaksu, Rajasthan
45BNLWBansthali Niwai (2)  18:58+2218:59+231m--1376.568315mNWRMaharajpura, Rajasthan
46SRASSiras  19:13+2219:14+221m--1392.261270mNWRIsarda, Rajasthan
47ISAIsarda  19:24+2119:25+221m--1402.457271mNWRMDR 111, Rajasthan
48SURLSureli  19:34+2119:35+211m--1411.061258mNWRDevpura, Rajasthan
49CKBChauth ka Barwara (1)X  19:44+2219:45+221m11420.226272mNWRSawai Madhopur, Rajasthan
50DPZDevpura (1)  20:11+1020:12+121m11431.250271mNWRSawai Madhopur, Rajasthan
51SWMSawai Madhopur Junction (4)O↵¶20:25+3020:40+4515m31442.153266mWCRSawai Madhopur, Rajasthan
52RWJRawania DungarX  20:59+4621:00+481m--1459.051266mWCRSawai Madhopur, Rajasthan
53AMLIAmli  21:09+4721:10+491m--1466.687233mWCRSawai Madhopur, Rajasthan
54IDGIndargarh Sumerganj Mandi (2)  21:19+5221:20+551m--1479.773247mWCRIndargarh, Rajasthan
55LKELakheri (3)  21:29+5621:30+581m--1490.767228mWCRBundi, Rajasthan
56KPZKaprenX  21:54+5621:55+591m--1517.667234mWCRKota - Lalsot Mega Highway, Rajasthan
57KPTNKeshorai PatanO  22:13+5722:14+1:011m--1537.826243mWCRSH 33, Rajasthan
58KOTAKota Junction (5)X22:45+5822:55+1:1010m41551.362256mWCRKota, Rajasthan
59ATHAntah  23:38+1:1023:40+1:102m--1596.034246mWCRAntah, Rajasthan
60BAZBaran  00:18+5200:20+562m--2617.643261mWCRBaran, Rajasthan
61ATRUAtru (1)  01:01+4401:03+472m12646.860288mWCRAtru, Rajasthan
62SYLSalpura  01:17+4401:18+461m--2660.871311mWCRKawari, Rajasthan
63CAGChhabra Gugor  01:31+3901:33+392m--2676.332342mWCRBaran, Rajasthan
64RTARuthiyai Junction (2)  02:45+3502:50+455m--2714.954414mWCRRuthiyai, Madhya Pradesh
65MUGAMahugara  03:05+4503:07+522m--2728.425501mWCRRuthiyai, Madhya Pradesh
66GUNAGuna Junction (3)X  03:25+4403:35+4810m--2735.837477mWCRJn Point Indore/Gwalior/Bina/Kota, Madhya Pradesh
67PGAPagaraX  03:57+4603:59+472m--2749.346494mWCRGuna, Madhya Pradesh
68SHDRShadhoragaon  04:19+4504:21+462m--2764.761504mWCRGuna, Madhya Pradesh
69RIKARatikheda  04:29+4704:31+492m--2772.848526mWCRGuna, Madhya Pradesh
70ASKNAshok Nagar (2)  04:40+5004:42+542m--2780.054502mWCRAshoknagar, Madhya Pradesh
71ORROrr  04:56+5704:58+582m--2792.741450mWCRAshoknagar, Madhya Pradesh
72PIAPipraigaon (3)X  05:18+5505:20+572m22806.450451mWCRAshoknagar, Madhya Pradesh
73GVBGuneru Bamori (2)  05:33+5405:35+572m--2817.363427mWCRAshoknagar, Madhya Pradesh
74MNVMungaoli (2)  05:43+5805:45+592m--2825.748403mWCRAshoknagar, Madhya Pradesh
75KXBKanjiyaX  05:55+5805:57+592m--2833.782390mWCRMungaoli, Madhya Pradesh
76SRKISemarkheri  06:03+1:0106:05+1:022m--2841.938412mWCRBina, Madhya Pradesh
77MDVKMahadeokhedi  06:13+1:0306:15+1:122m--2847.019423mWCRBina, Madhya Pradesh
78BINABina Junction (5)  06:40+1:0306:50+1:0210m22854.770414mWCRJn Pt - KATNI/GUNA/ BPL/JHS, Madhya Pradesh
79KIKAKurwai Kethora (2)XO  06:58+1:0707:00+1:102m--2864.053407mWCRBina, Madhya Pradesh
80MABAMandi Bamora (3)X  07:09+1:0907:11+1:102m22872.066413mWCRState Highway 14, Madhya Pradesh
81KAHKalhar (3)X  07:19+1:0907:21+1:102m--2880.866409mWCRSagar, Madhya Pradesh
82BETBareth (4)  07:30+1:1207:32+1:122m--2890.625418mWCRState Highway 19, Madhya Pradesh
83BAQGanj Basoda (4)X  07:56+1:0307:58+1:042m22900.566416mWCRVidisha, Madhya Pradesh
84PAIPabai (3)XO  08:06+1:0508:08+1:062m--2909.272425mWCRVidisha, Madhya Pradesh
85GLGGulabhGanj (3)XO  08:16+1:0708:18+1:072m22918.856432mWCRVidisha, Madhya Pradesh
86SUMRSumer (3)XO  08:26+1:0608:28+1:052m--2926.320417mWCRVidisha, Madhya Pradesh
87BHSVidisha (3)X  09:09+4809:11+482m22939.847432mWCRVidisha, Madhya Pradesh
88SCISanchi (2)X  09:23+4709:25+472m12949.255428mWCRRaisen, Madhya Pradesh
89SMTSalamatpur (3)  09:33+4709:35+472m12956.569437mWCRRaisen, Madhya Pradesh
90DWGDewanGanj (3)X  09:43+4709:45+462m22965.848444mWCRRaisen, Madhya Pradesh
91BVBBhadbhadaghat (1)X  09:56+4509:58+452m12974.645474mWCRBhopal, Madhya Pradesh
92SUWSukhisewaniyan (3)X  10:08+2710:10+272m22982.017508mWCRBhopal, Madhya Pradesh
93BPLBhopal Junction (6)  10:50+21-52993.3-497mWCRBhopal, Madhya Pradesh
Scroll to Top
Scroll to Bottom